Time;durP1;ratioP1;P1;durP2;ratioP2;P2;SDS_P1;SDS_P2;PMS_P1;PMS_P2;Temp;Humidity;BMP_temperature;BMP_pressure;BME280_temperature;BME280_humidity;BME280_pressure;Samples;Min_cycle;Max_cycle;Signal;HPM_P1;HPM_P2
2022/06/16 00:00:18;;;;;;;;;;;;;;;21.23;35.05;96777.53;30001;986;1877;-71
2022/06/16 00:00:49;;;;;;;;;;;;;;;21.24;34.63;96790.16;30001;983;1877;-70
2022/06/16 00:01:20;;;;;;;;;;;;;;;21.27;34.56;96783.13;30001;983;1864;-66
2022/06/16 00:01:51;;;;;;;;;;;;;;;21.27;34.35;96783.13;30001;983;1855;-70
2022/06/16 00:02:22;;;;;;;;;;;;;;;21.26;34.85;96787.84;30001;983;1877;-68
2022/06/16 00:02:53;;;;;;;;;;;;;;;21.27;34.74;96794.94;30001;983;1777;-69
2022/06/16 00:03:24;;;;;;;;;;;;;;;21.28;34.76;96806.78;30001;982;1877;-69
2022/06/16 00:03:55;;;;;;;;;;;;;;;21.28;34.73;96790.22;30001;982;1864;-71
2022/06/16 00:04:26;;;;;;;;;;;;;;;21.28;34.92;96791.03;30001;982;1868;-70
2022/06/16 00:04:57;;;;;;;;;;;;;;;21.29;35.00;96797.34;30001;982;1877;-70
2022/06/16 00:05:29;;;;;;;;;;;;;;;21.28;34.97;96791.03;30001;982;1877;-69
2022/06/16 00:06:00;;;;;;;;;;;;;;;21.29;35.35;96798.16;30001;982;1877;-68
2022/06/16 00:06:32;;;;;;;;;;;;;;;21.30;35.19;96798.94;30001;983;1784;-69
2022/06/16 00:07:03;;;;;;;;;;;;;;;21.31;35.18;96800.53;30001;983;1868;-70
2022/06/16 00:07:34;;;;;;;;;;;;;;;21.30;35.46;96799.75;30001;983;1876;-70
2022/06/16 00:08:06;;;;;;;;;;;;;;;21.32;35.33;96796.62;30001;983;1863;-70
2022/06/16 00:08:37;;;;;;;;;;;;;;;21.30;35.47;96798.94;30001;983;1868;-70
2022/06/16 00:09:08;;;;;;;;;;;;;;;21.30;35.34;96793.44;30001;983;1877;-68
2022/06/16 00:09:39;;;;;;;;;;;;;;;21.30;35.61;96799.75;30001;983;1877;-69
2022/06/16 00:10:11;;;;;;;;;;;;;;;21.30;35.32;96797.00;30001;983;1877;-69
2022/06/16 00:11:33;;;;;;;;;;;;;;;21.30;35.37;96783.19;30001;982;1877;-69
2022/06/16 00:12:04;;;;;;;;;;;;;;;21.33;35.64;96792.69;30001;982;1864;-69
2022/06/16 00:12:35;;;;;;;;;;;;;;;21.31;35.44;96795.81;30001;982;1868;-68
2022/06/16 00:13:06;;;;;;;;;;;;;;;21.31;35.49;96790.31;30001;982;1877;-72
2022/06/16 00:13:38;;;;;;;;;;;;;;;21.33;35.74;96793.50;30001;982;1877;-67
2022/06/16 00:14:10;;;;;;;;;;;;;;;21.32;35.67;96796.62;30001;983;1876;-68
2022/06/16 00:14:41;;;;;;;;;;;;;;;21.33;35.80;96800.97;30001;983;1876;-67
2022/06/16 00:15:14;;;;;;;;;;;;;;;21.32;35.57;96797.41;30001;983;1877;-67
2022/06/16 00:15:45;;;;;;;;;;;;;;;21.32;35.85;96791.09;30001;983;1876;-70
2022/06/16 00:16:16;;;;;;;;;;;;;;;21.32;35.85;96800.19;30001;983;1877;-68
2022/06/16 00:16:47;;;;;;;;;;;;;;;21.32;35.88;96800.19;30001;983;1877;-56
2022/06/16 00:17:17;;;;;;;;;;;;;;;21.32;36.06;96802.94;30001;983;1864;-70
2022/06/16 00:17:48;;;;;;;;;;;;;;;21.32;36.08;96796.62;30001;983;1868;-70
2022/06/16 00:18:20;;;;;;;;;;;;;;;21.31;36.20;96801.34;30001;982;1877;-72
2022/06/16 00:18:51;;;;;;;;;;;;;;;21.31;35.89;96795.03;30001;982;1877;-70
2022/06/16 00:19:22;;;;;;;;;;;;;;;21.31;36.04;96798.59;30001;982;1877;-69
2022/06/16 00:19:53;;;;;;;;;;;;;;;21.31;35.85;96795.81;30001;982;1864;-68
2022/06/16 00:20:24;;;;;;;;;;;;;;;21.32;35.84;96791.09;30001;982;1869;-69
2022/06/16 00:20:55;;;;;;;;;;;;;;;21.32;35.98;96797.41;30001;983;1876;-71
2022/06/16 00:21:26;;;;;;;;;;;;;;;21.31;35.81;96798.59;30001;983;1876;-70
2022/06/16 00:21:57;;;;;;;;;;;;;;;21.31;35.83;96790.31;30001;979;1874;-69
2022/06/16 00:22:28;;;;;;;;;;;;;;;21.30;36.13;96794.22;30001;983;1868;-69
2022/06/16 00:22:58;;;;;;;;;;;;;;;21.31;35.83;96795.81;30001;983;1863;-70
2022/06/16 00:23:30;;;;;;;;;;;;;;;21.30;35.73;96797.00;30001;983;1868;-69
2022/06/16 00:24:02;;;;;;;;;;;;;;;21.31;35.99;96798.59;30001;983;1877;-67
2022/06/16 00:24:33;;;;;;;;;;;;;;;21.31;36.14;96789.50;30001;983;1877;-69
2022/06/16 00:25:08;;;;;;;;;;;;;;;21.31;35.80;96789.50;30001;983;1877;-67
2022/06/16 00:25:39;;;;;;;;;;;;;;;21.30;36.06;96788.72;30001;983;1798;-68
2022/06/16 00:26:12;;;;;;;;;;;;;;;21.30;35.98;96799.75;30001;982;1877;-70
2022/06/16 00:26:43;;;;;;;;;;;;;;;21.30;35.81;96794.22;30001;982;1877;-70
2022/06/16 00:27:14;;;;;;;;;;;;;;;21.30;36.04;96796.19;30001;982;1877;-70
2022/06/16 00:27:44;;;;;;;;;;;;;;;21.30;36.07;96799.75;30001;982;1864;-69
2022/06/16 00:28:15;;;;;;;;;;;;;;;21.31;35.85;96800.53;30001;982;1855;-56
2022/06/16 00:28:47;;;;;;;;;;;;;;;21.30;35.78;96802.50;30001;983;1876;-56
2022/06/16 00:29:18;;;;;;;;;;;;;;;21.29;35.82;96798.16;30001;983;1784;-69
2022/06/16 00:29:49;;;;;;;;;;;;;;;21.30;35.78;96796.19;30001;983;1868;-70
2022/06/16 00:30:20;;;;;;;;;;;;;;;21.29;35.82;96798.16;30002;793;1014;-57
2022/06/16 00:30:51;;;;;;;;;;;;;;;21.30;36.22;96802.50;30001;983;1877;-69
2022/06/16 00:31:23;;;;;;;;;;;;;;;21.30;36.01;96797.00;30001;983;1877;-56
2022/06/16 00:31:54;;;;;;;;;;;;;;;21.30;36.00;96798.94;30001;983;1877;-67
2022/06/16 00:32:24;;;;;;;;;;;;;;;21.29;35.95;96797.34;30001;983;1877;-69
2022/06/16 00:32:55;;;;;;;;;;;;;;;21.29;36.19;96794.59;30001;983;1877;-67
2022/06/16 00:33:26;;;;;;;;;;;;;;;21.29;36.03;96792.63;30001;982;1864;-69
2022/06/16 00:33:57;;;;;;;;;;;;;;;21.28;36.15;96795.75;30001;982;1855;-68
2022/06/16 00:34:28;;;;;;;;;;;;;;;21.27;36.28;96797.72;30001;982;1878;-68
2022/06/16 00:35:07;;;;;;;;;;;;;;;21.27;36.27;96794.94;30001;984;1872;-57
2022/06/16 00:35:52;;;;;;;;;;;;;;;21.26;35.83;96790.59;30001;982;1877;-66
2022/06/16 00:36:24;;;;;;;;;;;;;;;21.26;36.08;96796.12;30001;983;1872;-57
2022/06/16 00:37:00;;;;;;;;;;;;;;;21.24;36.11;96801.19;30001;983;1876;-57
2022/06/16 00:37:33;;;;;;;;;;;;;;;21.24;35.74;96790.16;30001;983;1876;-56
2022/06/16 00:38:04;;;;;;;;;;;;;;;21.23;35.89;96788.56;30001;983;1863;-69
2022/06/16 00:38:36;;;;;;;;;;;;;;;21.22;36.14;96786.16;30001;983;1868;-57
2022/06/16 00:39:07;;;;;;;;;;;;;;;21.20;35.93;96786.50;30001;983;1877;-57
2022/06/16 00:39:38;;;;;;;;;;;;;;;21.21;35.92;96790.09;30001;983;1877;-57
2022/06/16 00:40:10;;;;;;;;;;;;;;;21.20;36.10;96785.69;30001;983;1877;-68
2022/06/16 00:40:42;;;;;;;;;;;;;;;21.19;36.02;96790.41;30001;983;1834;-57
2022/06/16 00:41:19;;;;;;;;;;;;;;;21.19;35.67;96789.63;30001;982;1877;-56
2022/06/16 00:41:55;;;;;;;;;;;;;;;21.19;35.90;96776.63;30001;982;1877;-57
2022/06/16 00:42:35;;;;;;;;;;;;;;;21.19;35.46;96782.13;30001;982;1788;-66
2022/06/16 00:43:06;;;;;;;;;;;;;;;21.19;35.54;96793.19;30001;985;1864;-67
2022/06/16 00:43:37;;;;;;;;;;;;;;;21.18;35.60;96786.06;30001;983;1872;-69
2022/06/16 00:44:40;;;;;;;;;;;;;;;21.19;35.54;96787.66;30001;983;1868;-70
2022/06/16 00:45:29;;;;;;;;;;;;;;;21.19;35.28;96782.13;30001;983;1868;-57
2022/06/16 00:46:02;;;;;;;;;;;;;;;21.20;35.17;96792.00;30001;983;1872;-70
2022/06/16 00:46:33;;;;;;;;;;;;;;;21.20;35.30;96792.00;30001;983;1881;-57
2022/06/16 00:47:05;;;;;;;;;;;;;;;21.19;35.32;96787.66;30001;983;1881;-57
2022/06/16 00:47:36;;;;;;;;;;;;;;;21.20;35.27;96789.25;30001;983;1868;-56
2022/06/16 00:48:08;;;;;;;;;;;;;;;21.19;35.30;96787.66;30001;983;1873;-69
2022/06/16 00:48:46;;;;;;;;;;;;;;;21.20;35.04;96791.22;30001;982;1881;-68
2022/06/16 00:49:18;;;;;;;;;;;;;;;21.18;35.05;96788.81;30001;982;1881;-66
2022/06/16 00:49:51;;;;;;;;;;;;;;;21.18;35.29;96786.06;30001;982;1868;-67
2022/06/16 00:50:21;;;;;;;;;;;;;;;21.19;35.04;96776.63;30001;982;1873;-69
2022/06/16 00:51:07;;;;;;;;;;;;;;;21.18;35.01;96780.53;30001;986;1882;-69
2022/06/16 00:51:42;;;;;;;;;;;;;;;21.17;35.42;96784.47;30001;983;1881;-69
2022/06/16 00:52:25;;;;;;;;;;;;;;;21.17;35.40;96778.94;30001;983;1881;-69
2022/06/16 00:52:56;;;;;;;;;;;;;;;21.18;34.74;96774.22;30001;983;1881;-57
2022/06/16 00:53:28;;;;;;;;;;;;;;;21.19;35.01;96778.59;30001;983;1868;-70
2022/06/16 00:54:28;;;;;;;;;;;;;;;21.16;35.71;96780.09;30001;986;1868;-67
2022/06/16 00:55:05;;;;;;;;;;;;;;;21.15;35.07;96781.25;30001;983;1877;-67
2022/06/16 00:55:39;;;;;;;;;;;;;;;21.14;35.45;96779.66;30001;982;1868;-69
2022/06/16 00:56:13;;;;;;;;;;;;;;;21.14;34.99;96778.91;30001;982;1873;-67
2022/06/16 00:56:45;;;;;;;;;;;;;;;21.14;35.30;96779.66;30001;982;1881;-69
2022/06/16 00:57:31;;;;;;;;;;;;;;;21.15;35.02;96775.75;30001;982;1868;-57
2022/06/16 00:58:02;;;;;;;;;;;;;;;21.14;35.10;96779.66;30001;982;1873;-57
2022/06/16 00:58:36;;;;;;;;;;;;;;;21.14;35.31;96779.66;30001;983;1881;-67
2022/06/16 00:59:11;;;;;;;;;;;;;;;21.15;35.27;96780.47;30001;983;1881;-57
2022/06/16 00:59:47;;;;;;;;;;;;;;;21.13;35.25;96772.59;30001;983;1881;-69
2022/06/16 01:00:28;;;;;;;;;;;;;;;21.14;35.21;96774.16;30001;983;1881;-58
2022/06/16 01:00:59;;;;;;;;;;;;;;;21.14;35.27;96771.41;30001;983;1868;-67
2022/06/16 01:01:30;;;;;;;;;;;;;;;21.13;35.27;96778.09;30001;983;1872;-57
2022/06/16 01:02:03;;;;;;;;;;;;;;;21.14;35.14;96776.16;30001;983;1787;-56
2022/06/16 01:02:34;;;;;;;;;;;;;;;21.14;35.14;96774.16;30001;983;1881;-70
2022/06/16 01:03:05;;;;;;;;;;;;;;;21.14;35.28;96773.38;30001;982;1881;-57
2022/06/16 01:05:15;;;;;;;;;;;;;;;21.12;34.98;96759.94;30001;982;1882;-69
2022/06/16 01:05:47;;;;;;;;;;;;;;;21.12;35.18;96765.47;30001;982;1881;-56
2022/06/16 01:06:30;;;;;;;;;;;;;;;21.13;35.17;96760.75;30001;986;1868;-69
2022/06/16 01:07:03;;;;;;;;;;;;;;;21.10;35.41;96767.78;30001;983;1868;-70
2022/06/16 01:07:38;;;;;;;;;;;;;;;21.09;35.58;96763.44;30001;983;1881;-68
2022/06/16 01:08:10;;;;;;;;;;;;;;;21.11;35.28;96774.91;30001;987;1877;-69
2022/06/16 01:08:42;;;;;;;;;;;;;;;21.09;35.47;96774.47;30001;983;1881;-57
2022/06/16 01:09:15;;;;;;;;;;;;;;;21.09;35.50;96766.19;30001;974;1899;-57
2022/06/16 01:09:46;;;;;;;;;;;;;;;21.11;35.41;96774.09;30001;983;1868;-71
2022/06/16 01:10:18;;;;;;;;;;;;;;;21.09;35.69;96771.72;30001;982;1872;-72
2022/06/16 01:10:51;;;;;;;;;;;;;;;21.07;35.54;96774.84;30001;982;1881;-65
2022/06/16 01:13:53;;;;;;;;;;;;;;;;;;;;;
2022/06/16 01:14:37;;;;;;;;;;;;;;;21.04;35.77;96774.75;30001;983;1876;-69
2022/06/16 01:15:27;;;;;;;;;;;;;;;21.04;35.93;96774.75;30001;983;1868;-70
2022/06/16 01:16:10;;;;;;;;;;;;;;;21.04;35.86;96781.06;30001;983;1868;-71
2022/06/16 01:16:46;;;;;;;;;;;;;;;21.02;35.72;96775.13;30001;983;1881;-68
2022/06/16 01:17:46;;;;;;;;;;;;;;;21.03;36.27;96773.16;30001;983;1881;-70
2022/06/16 01:18:28;;;;;;;;;;;;;;;21.02;36.05;96774.31;30001;982;1877;-67
2022/06/16 01:19:34;;;;;;;;;;;;;;;20.99;36.86;96777.81;30001;982;1881;-70
2022/06/16 01:20:23;;;;;;;;;;;;;;;20.97;36.21;96774.59;30001;982;1877;-70
2022/06/16 01:21:17;;;;;;;;;;;;;;;20.96;36.38;96773.81;30001;982;1860;-70
2022/06/16 01:22:07;;;;;;;;;;;;;;;20.96;36.42;96775.78;30001;983;1854;-70
2022/06/16 01:23:00;;;;;;;;;;;;;;;20.95;36.23;96776.94;30001;983;1881;-69
2022/06/16 01:23:48;;;;;;;;;;;;;;;20.93;36.39;96780.06;30001;983;1881;-67
2022/06/16 01:24:27;;;;;;;;;;;;;;;20.91;36.77;96779.59;30001;983;1881;-68
2022/06/16 01:25:11;;;;;;;;;;;;;;;20.90;36.53;96779.97;30001;983;1881;-67
2022/06/16 01:26:06;;;;;;;;;;;;;;;20.90;36.61;96779.97;30001;982;1881;-67
2022/06/16 01:26:55;;;;;;;;;;;;;;;20.89;36.56;96778.38;30001;982;1864;-70
2022/06/16 01:27:52;;;;;;;;;;;;;;;20.87;36.88;96775.19;30001;982;1864;-69
2022/06/16 01:28:28;;;;;;;;;;;;;;;20.86;36.62;96776.34;30001;983;1876;-70
2022/06/16 01:29:22;;;;;;;;;;;;;;;20.86;36.84;96770.81;30001;983;1881;-70
2022/06/16 01:30:00;;;;;;;;;;;;;;;20.85;36.75;96771.97;30001;983;1876;-70
2022/06/16 01:30:37;;;;;;;;;;;;;;;20.84;36.73;96765.66;30001;983;1881;-67
2022/06/16 01:31:13;;;;;;;;;;;;;;;20.83;36.80;96772.34;30001;983;1881;-57
2022/06/16 01:32:05;;;;;;;;;;;;;;;20.82;36.86;96769.94;30001;983;1868;-68
2022/06/16 01:33:10;;;;;;;;;;;;;;;20.81;37.03;96776.63;30001;983;1873;-69
2022/06/16 01:34:06;;;;;;;;;;;;;;;20.79;36.79;96768.75;30001;970;1896;-71
2022/06/16 01:34:44;;;;;;;;;;;;;;;20.78;37.07;96771.84;30001;982;1882;-68
2022/06/16 01:35:29;;;;;;;;;;;;;;;20.76;36.84;96777.72;30001;982;1882;-57
2022/06/16 01:36:20;;;;;;;;;;;;;;;20.74;37.16;96769.81;30001;983;1867;-68
2022/06/16 01:37:01;;;;;;;;;;;;;;;20.71;37.16;96767.78;30001;983;1872;-57
2022/06/16 01:37:39;;;;;;;;;;;;;;;20.70;37.27;96773.66;30001;983;1881;-57
2022/06/16 01:38:31;;;;;;;;;;;;;;;20.67;37.30;96769.66;30001;983;1881;-70
2022/06/16 01:39:10;;;;;;;;;;;;;;;20.63;37.52;96771.53;30001;983;1881;-57
2022/06/16 01:40:01;;;;;;;;;;;;;;;20.61;37.23;96771.09;30001;983;1881;-69
2022/06/16 01:40:52;;;;;;;;;;;;;;;20.60;37.24;96772.25;30001;982;1798;-57
2022/06/16 01:41:32;;;;;;;;;;;;;;;20.56;37.69;96776.91;30001;982;1864;-57
2022/06/16 01:42:24;;;;;;;;;;;;;;;20.54;37.54;96779.22;30001;982;1873;-57
2022/06/16 01:43:29;;;;;;;;;;;;;;;20.49;38.36;96782.25;30001;982;1882;-58
2022/06/16 01:44:08;;;;;;;;;;;;;;;20.45;38.23;96775.84;30001;983;1876;-67
2022/06/16 01:44:41;;;;;;;;;;;;;;;20.45;38.01;96775.03;30001;983;1881;-57
2022/06/16 01:45:18;;;;;;;;;;;;;;;20.41;38.16;96766.72;30001;983;1881;-57
2022/06/16 01:45:56;;;;;;;;;;;;;;;20.40;37.86;96778.91;30001;960;1904;-56
2022/06/16 01:46:30;;;;;;;;;;;;;;;20.39;38.14;96771.78;30001;983;1868;-57
2022/06/16 01:47:09;;;;;;;;;;;;;;;20.37;37.99;96771.31;30001;983;1872;-57
2022/06/16 01:47:48;;;;;;;;;;;;;;;20.36;38.12;96778.00;30001;983;1868;-58
2022/06/16 01:48:23;;;;;;;;;;;;;;;20.34;38.13;96769.28;30001;982;1872;-57
2022/06/16 01:48:56;;;;;;;;;;;;;;;20.32;38.30;96772.41;30001;982;1881;-56
2022/06/16 01:49:32;;;;;;;;;;;;;;;20.32;38.17;96771.59;30001;982;1882;-57
2022/06/16 01:50:06;;;;;;;;;;;;;;;20.31;38.36;96770.78;30001;982;1881;-57
2022/06/16 01:50:42;;;;;;;;;;;;;;;20.32;38.22;96777.09;30001;983;1881;-57
2022/06/16 01:51:24;;;;;;;;;;;;;;;20.32;38.30;96775.16;30001;983;1868;-56
2022/06/16 01:51:58;;;;;;;;;;;;;;;20.31;38.04;96773.56;30001;983;1872;-68
2022/06/16 01:52:42;;;;;;;;;;;;;;;20.31;38.25;96768.03;30001;983;1881;-70
2022/06/16 01:53:16;;;;;;;;;;;;;;;20.30;38.04;96773.91;30001;983;1881;-67
2022/06/16 01:53:54;;;;;;;;;;;;;;;20.30;37.89;96768.41;30001;983;1881;-70
2022/06/16 01:54:31;;;;;;;;;;;;;;;20.28;38.02;96773.47;30001;983;1881;-71
2022/06/16 01:55:06;;;;;;;;;;;;;;;20.29;38.26;96775.06;30001;982;1881;-72
2022/06/16 01:55:41;;;;;;;;;;;;;;;20.28;38.05;96773.47;30001;982;1881;-69
2022/06/16 01:56:17;;;;;;;;;;;;;;;20.29;38.45;96775.06;30001;982;1868;-70
2022/06/16 01:56:51;;;;;;;;;;;;;;;20.25;38.29;96768.66;30001;982;1873;-69
2022/06/16 01:57:26;;;;;;;;;;;;;;;20.26;38.49;96767.50;30001;982;1881;-68
2022/06/16 01:58:01;;;;;;;;;;;;;;;20.25;38.19;96765.91;30001;982;1882;-68
2022/06/16 01:58:34;;;;;;;;;;;;;;;20.23;38.54;96763.53;30001;983;1881;-69
2022/06/16 01:59:14;;;;;;;;;;;;;;;20.23;38.42;96763.53;30001;983;1881;-70
2022/06/16 02:00:10;;;;;;;;;;;;;;;20.23;38.77;96765.47;30001;983;1868;-67
2022/06/16 02:00:43;;;;;;;;;;;;;;;20.22;38.84;96766.63;30001;983;1868;-57
2022/06/16 02:01:17;;;;;;;;;;;;;;;20.22;38.72;96761.13;30001;983;1868;-67
2022/06/16 02:01:50;;;;;;;;;;;;;;;20.18;38.49;96758.28;30001;983;1872;-68
2022/06/16 02:02:22;;;;;;;;;;;;;;;20.17;38.59;96764.16;30001;982;1868;-71
2022/06/16 02:02:58;;;;;;;;;;;;;;;20.16;38.96;96762.53;30001;982;1859;-70
2022/06/16 02:03:32;;;;;;;;;;;;;;;20.12;39.03;96756.94;30001;982;1785;-70
2022/06/16 02:04:07;;;;;;;;;;;;;;;20.13;38.83;96763.25;30001;982;1882;-69
2022/06/16 02:04:41;;;;;;;;;;;;;;;20.11;39.10;96766.38;30001;982;1882;-70
2022/06/16 02:05:17;;;;;;;;;;;;;;;20.10;38.85;96769.50;30001;982;1882;-69
2022/06/16 02:05:56;;;;;;;;;;;;;;;20.08;39.12;96769.87;30001;983;1881;-69
2022/06/16 02:06:32;;;;;;;;;;;;;;;20.06;39.03;96767.47;30002;788;1015;-69
2022/06/16 02:07:08;;;;;;;;;;;;;;;20.06;39.40;96764.72;30001;983;1872;-68
2022/06/16 02:07:42;;;;;;;;;;;;;;;20.04;39.38;96767.03;30001;983;1881;-69
2022/06/16 02:08:15;;;;;;;;;;;;;;;20.03;39.96;96768.19;30001;983;1881;-68
2022/06/16 02:08:48;;;;;;;;;;;;;;;19.99;39.39;96764.53;30001;983;1881;-71
2022/06/16 02:09:22;;;;;;;;;;;;;;;19.98;39.69;96767.66;30001;983;1881;-69
2022/06/16 02:10:02;;;;;;;;;;;;;;;19.96;39.58;96765.25;30001;982;1881;-57
2022/06/16 02:10:41;;;;;;;;;;;;;;;19.93;40.91;96771.47;30001;971;1887;-68
2022/06/16 02:11:16;;;;;;;;;;;;;;;19.90;40.28;96772.19;30001;982;1873;-68
2022/06/16 02:11:47;;;;;;;;;;;;;;;19.87;40.75;96767.38;30001;982;1881;-70
2022/06/16 02:13:34;;;;;;;;;;;;;;;19.77;41.35;96772.62;30001;983;1881;-56
2022/06/16 02:14:25;;;;;;;;;;;;;;;19.74;42.25;96774.16;30001;983;1881;-67
2022/06/16 02:14:56;;;;;;;;;;;;;;;19.69;41.26;96774.41;30001;983;1876;-68
2022/06/16 02:15:49;;;;;;;;;;;;;;;19.68;41.68;96770.06;30001;983;1868;-69
2022/06/16 02:16:26;;;;;;;;;;;;;;;19.63;42.06;96771.13;30001;983;1859;-69
2022/06/16 02:16:57;;;;;;;;;;;;;;;19.61;41.65;96770.66;30001;983;1881;-67
2022/06/16 02:17:28;;;;;;;;;;;;;;;19.62;41.84;96774.22;30001;982;1881;-68
2022/06/16 02:18:00;;;;;;;;;;;;;;;19.59;41.73;96772.97;30001;982;1881;-69
2022/06/16 02:18:36;;;;;;;;;;;;;;;19.57;42.30;96774.47;30001;982;1881;-69
2022/06/16 02:19:09;;;;;;;;;;;;;;;19.54;42.04;96764.97;30001;982;1881;-69
2022/06/16 02:19:40;;;;;;;;;;;;;;;19.55;42.00;96765.78;30001;982;1882;-68
2022/06/16 02:20:11;;;;;;;;;;;;;;;19.55;41.73;96761.06;30001;982;1881;-68
2022/06/16 02:21:02;;;;;;;;;;;;;;;19.54;41.76;96769.69;30001;982;1882;-71
2022/06/16 02:21:34;;;;;;;;;;;;;;;19.51;41.85;96767.63;30001;983;1863;-67
2022/06/16 02:22:05;;;;;;;;;;;;;;;19.49;41.97;96767.94;30001;983;1872;-70
2022/06/16 02:22:36;;;;;;;;;;;;;;;19.46;42.23;96762.34;30001;983;1881;-67
2022/06/16 02:23:07;;;;;;;;;;;;;;;19.45;42.08;96771.75;30001;983;1881;-69
2022/06/16 02:23:39;;;;;;;;;;;;;;;19.43;42.26;96767.41;30001;983;1881;-67
2022/06/16 02:24:13;;;;;;;;;;;;;;;19.42;42.15;96773.25;30001;983;1868;-69
2022/06/16 02:24:44;;;;;;;;;;;;;;;19.42;42.19;96773.25;30001;983;1872;-68
2022/06/16 02:25:14;;;;;;;;;;;;;;;19.41;41.92;96772.47;30001;982;1881;-69
2022/06/16 02:25:47;;;;;;;;;;;;;;;19.41;42.08;96766.16;30001;982;1881;-70
2022/06/16 02:26:18;;;;;;;;;;;;;;;19.39;41.90;96774.78;30001;982;1882;-69
2022/06/16 02:26:50;;;;;;;;;;;;;;;19.38;42.01;96767.69;30001;982;1882;-68
2022/06/16 02:27:21;;;;;;;;;;;;;;;19.37;41.96;96777.09;30001;982;1868;-68
2022/06/16 02:27:53;;;;;;;;;;;;;;;19.36;41.79;96770.00;30001;983;1872;-71
2022/06/16 02:28:24;;;;;;;;;;;;;;;19.36;41.87;96774.69;30001;984;1877;-67
2022/06/16 02:28:57;;;;;;;;;;;;;;;19.34;42.00;96766.78;30001;983;1881;-70
2022/06/16 02:29:37;;;;;;;;;;;;;;;19.33;41.78;96770.69;30001;983;1881;-70
2022/06/16 02:30:08;;;;;;;;;;;;;;;19.31;42.08;96764.75;30001;983;1881;-71
2022/06/16 02:30:47;;;;;;;;;;;;;;;19.30;41.93;96765.91;30001;987;1877;-71
2022/06/16 02:31:37;;;;;;;;;;;;;;;19.30;42.13;96765.91;30001;983;1881;-71
2022/06/16 02:32:21;;;;;;;;;;;;;;;19.28;42.87;96770.94;30001;985;1868;-67
2022/06/16 02:32:59;;;;;;;;;;;;;;;19.24;42.47;96767.28;30001;982;1859;-70
2022/06/16 02:33:46;;;;;;;;;;;;;;;19.22;42.65;96764.09;30001;982;1798;-71
2022/06/16 02:34:54;;;;;;;;;;;;;;;19.22;42.62;96766.03;30001;982;1873;-67
2022/06/16 02:35:36;;;;;;;;;;;;;;;19.21;42.25;96770.75;30001;960;1800;-67
2022/06/16 02:36:29;;;;;;;;;;;;;;;19.19;42.60;96770.31;30001;983;1881;-57
2022/06/16 02:37:18;;;;;;;;;;;;;;;19.19;42.11;96770.31;30001;965;1887;-57
2022/06/16 02:39:09;;;;;;;;;;;;;;;19.19;42.67;96770.31;30001;983;1891;-64
2022/06/16 02:40:12;;;;;;;;;;;;;;;19.20;42.54;96771.91;30001;983;1869;-63
2022/06/16 02:40:50;;;;;;;;;;;;;;;19.19;42.28;96764.78;30001;982;1873;-66
2022/06/16 02:41:31;;;;;;;;;;;;;;;19.19;42.01;96758.50;30001;982;1869;-65
2022/06/16 02:42:16;;;;;;;;;;;;;;;19.18;42.29;96762.41;30001;982;1860;-65
2022/06/16 02:42:57;;;;;;;;;;;;;;;19.17;42.58;96767.09;30001;983;1868;-57
2022/06/16 02:43:54;;;;;;;;;;;;;;;19.16;42.23;96764.69;30001;983;1873;-64
2022/06/16 02:44:45;;;;;;;;;;;;;;;19.16;42.26;96765.50;30001;983;1877;-64
2022/06/16 02:45:25;;;;;;;;;;;;;;;19.15;42.13;96755.66;30001;983;1877;-64
2022/06/16 02:46:18;;;;;;;;;;;;;;;19.15;42.25;96752.91;30001;983;1882;-65
2022/06/16 02:47:01;;;;;;;;;;;;;;;19.15;42.05;96755.66;30001;983;1877;-65
2022/06/16 02:47:57;;;;;;;;;;;;;;;19.13;42.65;96755.19;30001;983;1882;-65
2022/06/16 02:48:41;;;;;;;;;;;;;;;19.11;42.57;96757.50;30001;982;1860;-64
2022/06/16 02:49:41;;;;;;;;;;;;;;;19.09;43.36;96765.28;30001;982;1873;-64
2022/06/16 02:50:16;;;;;;;;;;;;;;;19.06;43.77;96755.00;30001;983;1877;-64
2022/06/16 02:51:21;;;;;;;;;;;;;;;19.05;43.44;96761.69;30001;971;1893;-56
2022/06/16 02:52:12;;;;;;;;;;;;;;;19.03;43.54;96756.53;30001;983;1877;-64
2022/06/16 02:52:50;;;;;;;;;;;;;;;19.02;43.87;96760.44;30001;983;1882;-56
2022/06/16 02:53:53;;;;;;;;;;;;;;;19.00;43.48;96762.72;30001;983;1868;-65
2022/06/16 02:54:55;;;;;;;;;;;;;;;18.99;43.67;96755.63;30001;983;1851;-64
2022/06/16 02:55:46;;;;;;;;;;;;;;;18.95;43.59;96764.91;30001;982;1877;-62
2022/06/16 02:56:34;;;;;;;;;;;;;;;18.93;43.08;96759.78;30001;982;1878;-63
2022/06/16 02:57:12;;;;;;;;;;;;;;;18.93;43.33;96750.72;30001;982;1882;-66
2022/06/16 02:57:47;;;;;;;;;;;;;;;18.91;44.62;96764.00;30001;983;1881;-65
2022/06/16 02:58:19;;;;;;;;;;;;;;;18.88;44.35;96765.50;30001;983;1868;-65
2022/06/16 02:58:51;;;;;;;;;;;;;;;18.86;44.15;96765.06;30001;983;1872;-63
2022/06/16 02:59:25;;;;;;;;;;;;;;;18.86;44.17;96767.00;30001;983;1881;-65
2022/06/16 03:00:00;;;;;;;;;;;;;;;18.84;45.11;96777.56;30001;983;1881;-65
2022/06/16 03:00:37;;;;;;;;;;;;;;;18.84;44.37;96774.81;30001;983;1882;-65
2022/06/16 03:01:10;;;;;;;;;;;;;;;18.82;44.03;96772.41;30001;983;1881;-63
2022/06/16 03:01:41;;;;;;;;;;;;;;;18.82;43.76;96766.91;30001;983;1882;-65
2022/06/16 03:02:15;;;;;;;;;;;;;;;18.82;44.19;96775.16;30001;982;1882;-63
2022/06/16 03:02:46;;;;;;;;;;;;;;;18.83;43.59;96762.22;30001;982;1882;-65
2022/06/16 03:03:22;;;;;;;;;;;;;;;18.82;43.61;96766.91;30001;982;1786;-64
2022/06/16 03:04:05;;;;;;;;;;;;;;;18.83;43.08;96767.69;30001;982;1869;-64
2022/06/16 03:04:37;;;;;;;;;;;;;;;18.82;43.41;96768.84;30001;968;1896;-65
2022/06/16 03:05:10;;;;;;;;;;;;;;;18.85;42.82;96765.41;30001;982;1882;-64
2022/06/16 03:05:43;;;;;;;;;;;;;;;18.85;42.92;96768.16;30001;983;1881;-62
2022/06/16 03:06:14;;;;;;;;;;;;;;;18.85;42.89;96754.41;30001;986;1881;-63
2022/06/16 03:06:46;;;;;;;;;;;;;;;18.85;43.21;96770.91;30001;983;1881;-63
2022/06/16 03:07:17;;;;;;;;;;;;;;;18.85;43.36;96759.91;30001;983;1881;-64
2022/06/16 03:07:48;;;;;;;;;;;;;;;18.85;43.13;96754.41;30001;983;1882;-65
2022/06/16 03:08:20;;;;;;;;;;;;;;;18.85;43.16;96760.72;30001;983;1868;-65
2022/06/16 03:08:51;;;;;;;;;;;;;;;18.85;42.87;96765.41;30001;983;1873;-65
2022/06/16 03:09:22;;;;;;;;;;;;;;;18.86;42.64;96767.00;30001;983;1882;-62
2022/06/16 03:09:54;;;;;;;;;;;;;;;18.87;42.78;96757.62;30001;982;1882;-65
2022/06/16 03:11:16;;;;;;;;;;;;;;;18.90;42.51;96756.91;30001;982;1874;-64
2022/06/16 03:11:46;;;;;;;;;;;;;;;18.90;42.84;96754.16;30001;982;1882;-64
2022/06/16 03:12:18;;;;;;;;;;;;;;;18.93;42.60;96758.97;30001;982;1882;-65
2022/06/16 03:12:49;;;;;;;;;;;;;;;18.94;42.38;96755.06;30001;983;1881;-65
2022/06/16 03:13:30;;;;;;;;;;;;;;;18.94;42.30;96753.13;30001;983;1881;-64
2022/06/16 03:14:01;;;;;;;;;;;;;;;18.97;42.66;96751.63;30001;983;1881;-65
2022/06/16 03:14:32;;;;;;;;;;;;;;;18.98;42.60;96751.28;30001;983;1882;-65
2022/06/16 03:15:03;;;;;;;;;;;;;;;19.00;42.78;96756.44;30001;983;1881;-65
2022/06/16 03:15:34;;;;;;;;;;;;;;;19.02;42.63;96745.87;30001;983;1868;-64
2022/06/16 03:16:05;;;;;;;;;;;;;;;19.04;42.47;96751.81;30001;983;1873;-63
2022/06/16 03:16:38;;;;;;;;;;;;;;;19.06;41.81;96752.25;30001;983;1882;-63
2022/06/16 03:17:10;;;;;;;;;;;;;;;19.08;42.10;96747.19;30001;982;1882;-64
2022/06/16 03:17:41;;;;;;;;;;;;;;;19.12;42.16;96753.59;30001;982;1882;-65
2022/06/16 03:18:11;;;;;;;;;;;;;;;19.14;41.91;96745.78;30001;982;1882;-64
2022/06/16 03:18:42;;;;;;;;;;;;;;;19.15;42.09;96750.16;30001;982;1882;-66
2022/06/16 03:19:17;;;;;;;;;;;;;;;19.17;41.87;96742.34;30001;971;1902;-65
2022/06/16 03:19:48;;;;;;;;;;;;;;;19.18;42.72;96741.19;30001;982;1862;-64
2022/06/16 03:20:19;;;;;;;;;;;;;;;19.19;43.36;96753.78;30001;983;1882;-65
2022/06/16 03:20:51;;;;;;;;;;;;;;;19.18;43.65;96756.91;30001;983;1868;-65
2022/06/16 03:21:22;;;;;;;;;;;;;;;19.17;44.03;96756.09;30001;983;1873;-65
2022/06/16 03:21:54;;;;;;;;;;;;;;;19.16;43.55;96760.00;30001;983;1881;-64
2022/06/16 03:22:26;;;;;;;;;;;;;;;19.16;44.56;96759.19;30001;983;1881;-57
2022/06/16 03:22:57;;;;;;;;;;;;;;;19.15;44.03;96754.84;30001;983;1882;-66
2022/06/16 03:23:27;;;;;;;;;;;;;;;19.14;43.74;96756.00;30001;983;1882;-57
2022/06/16 03:23:58;;;;;;;;;;;;;;;19.13;44.22;96755.19;30001;983;1801;-65
2022/06/16 03:24:29;;;;;;;;;;;;;;;19.13;43.25;96749.69;30001;982;1882;-64
2022/06/16 03:25:00;;;;;;;;;;;;;;;19.12;43.85;96752.78;30001;982;1882;-65